Oude Pekela, Netherlands
Current Conditions -  °F | °C
As of 4:55 PM on Monday 22 Dec 2014 (Local Time) from EHGG Reporting Station
Light Rain Light Rain  
Wind Chill: 52°   Ceiling: 1800
Heat Index: 52°   Visibility: 6mi
Dew Point: 48°   Wind: 23mph
Humidity: 88%   Direction: 250°WSW
Pressure: 29.83"   Gusts: NA
Location:  53.1°N, 7.01°E
Report Text: EHGG 221555Z AUTO 25020KT 210V280 9999 -DZRA SCT015///BKN018/// OVC021/// 11/09 Q1010 TEMPO 6000 -DZRA BKN012
Loading
Personal Weather Stations






























Interactive Weather Map New forecast layout! Learn more

10-Day Weather Forecast

Advertisements
Track Severe Weather on mobile